createdAt,value
2017-10-20T00:02:25.422Z,29.50
2017-10-20T00:04:54.025Z,29.50
2017-10-20T00:07:23.392Z,29.50
2017-10-20T00:09:51.345Z,29.50
2017-10-20T00:12:19.544Z,29.50
2017-10-20T00:14:47.769Z,29.50
2017-10-20T00:17:16.230Z,29.50
2017-10-20T00:19:45.468Z,29.30
2017-10-20T00:22:14.222Z,29.30
2017-10-20T00:24:43.364Z,29.40
2017-10-20T00:27:11.394Z,29.40
2017-10-20T00:29:40.233Z,29.40
2017-10-20T00:32:08.350Z,29.40
2017-10-20T00:34:37.657Z,29.30
2017-10-20T00:37:06.553Z,29.30
2017-10-20T00:39:35.791Z,29.20
2017-10-20T00:42:03.856Z,29.20
2017-10-20T00:44:32.139Z,29.20
2017-10-20T00:47:00.170Z,29.20
2017-10-20T00:49:29.012Z,29.20
2017-10-20T00:51:57.664Z,29.10
2017-10-20T00:54:26.358Z,29.10
2017-10-20T00:56:54.512Z,29.10
2017-10-20T00:59:23.629Z,29.10
2017-10-20T01:01:51.615Z,29.00
2017-10-20T01:04:20.205Z,29.00
2017-10-20T01:06:48.913Z,29.00
2017-10-20T01:09:17.494Z,29.00
2017-10-20T01:11:45.462Z,28.90
2017-10-20T01:14:14.589Z,28.90
2017-10-20T01:16:42.613Z,28.90
2017-10-20T01:19:10.780Z,28.90
2017-10-20T01:21:39.019Z,28.80
2017-10-20T01:24:07.717Z,28.70
2017-10-20T01:26:37.008Z,28.70
2017-10-20T01:29:05.178Z,28.70
2017-10-20T01:31:33.300Z,28.80
2017-10-20T01:34:01.472Z,28.80
2017-10-20T01:36:30.465Z,28.80
2017-10-20T01:38:59.022Z,28.80
2017-10-20T01:41:28.234Z,28.70
2017-10-20T01:43:56.518Z,28.70
2017-10-20T01:46:24.693Z,28.70
2017-10-20T01:48:52.745Z,28.70
2017-10-20T01:51:22.436Z,28.60
2017-10-20T01:53:50.653Z,28.60
2017-10-20T01:56:19.438Z,28.60
2017-10-20T01:58:48.105Z,28.60
2017-10-20T02:01:16.824Z,28.60
2017-10-20T02:03:44.800Z,28.60
2017-10-20T02:06:13.429Z,28.50
2017-10-20T02:08:42.077Z,28.60
2017-10-20T02:11:10.769Z,28.60
2017-10-20T02:13:40.316Z,28.50
2017-10-20T02:16:09.243Z,28.60
2017-10-20T02:18:37.477Z,28.60
2017-10-20T02:21:06.165Z,28.50
2017-10-20T02:23:35.342Z,28.50
2017-10-20T02:26:03.879Z,28.50
2017-10-20T02:28:33.405Z,28.40
2017-10-20T02:31:01.462Z,28.50
2017-10-20T02:33:30.349Z,28.50
2017-10-20T02:35:59.241Z,28.50
2017-10-20T02:38:28.040Z,28.50
2017-10-20T02:40:57.451Z,28.50
2017-10-20T02:43:26.090Z,28.50
2017-10-20T02:45:54.114Z,28.60
2017-10-20T02:48:22.160Z,28.60
2017-10-20T02:50:52.881Z,28.70
2017-10-20T02:53:21.114Z,28.70
2017-10-20T02:55:49.697Z,28.70
2017-10-20T02:58:18.257Z,28.80
2017-10-20T03:00:46.569Z,28.80
2017-10-20T03:03:14.652Z,28.80
2017-10-20T03:05:42.798Z,28.90
2017-10-20T03:08:10.841Z,28.90
2017-10-20T03:10:40.111Z,29.10
2017-10-20T03:13:08.818Z,29.10
2017-10-20T03:15:38.199Z,29.30
2017-10-20T03:18:06.352Z,29.30
2017-10-20T03:20:34.490Z,29.40
2017-10-20T03:23:03.272Z,29.80
2017-10-20T03:25:32.065Z,29.90
2017-10-20T03:28:01.554Z,30.00
2017-10-20T03:30:30.271Z,30.00
2017-10-20T03:32:58.341Z,30.30
2017-10-20T03:35:27.157Z,30.50
2017-10-20T03:37:55.940Z,30.40
2017-10-20T03:40:24.747Z,30.60
2017-10-20T03:42:53.350Z,30.90
2017-10-20T03:45:21.936Z,31.00
2017-10-20T03:47:49.936Z,31.10
2017-10-20T03:50:18.790Z,31.20
2017-10-20T03:52:47.317Z,31.20
2017-10-20T03:55:16.519Z,31.40
2017-10-20T03:57:45.937Z,31.40
2017-10-20T04:00:13.979Z,31.40
2017-10-20T04:02:42.029Z,31.70
2017-10-20T04:05:10.345Z,32.60
2017-10-20T04:07:39.730Z,34.70
2017-10-20T04:10:07.865Z,34.70
2017-10-20T04:12:36.673Z,34.30
2017-10-20T04:15:05.310Z,33.90
2017-10-20T04:17:33.469Z,33.40
2017-10-20T04:20:02.418Z,32.80
2017-10-20T04:22:30.410Z,32.80
2017-10-20T04:24:58.374Z,32.60
2017-10-20T04:27:26.567Z,32.60
2017-10-20T04:29:56.013Z,32.30
2017-10-20T04:32:24.085Z,32.20
2017-10-20T04:34:52.177Z,32.50
2017-10-20T04:37:20.174Z,32.50
2017-10-20T04:39:48.681Z,32.60
2017-10-20T04:42:18.208Z,32.70
2017-10-20T04:44:46.673Z,32.70
2017-10-20T04:47:16.120Z,32.90
2017-10-20T04:49:45.082Z,32.90
2017-10-20T04:52:13.835Z,33.00
2017-10-20T04:54:41.819Z,32.90
2017-10-20T04:57:10.314Z,33.20
2017-10-20T04:59:39.458Z,33.50
2017-10-20T05:02:07.536Z,33.50
2017-10-20T05:04:35.500Z,33.40
2017-10-20T05:07:03.549Z,33.70
2017-10-20T05:09:32.152Z,33.70
2017-10-20T05:12:00.713Z,34.00
2017-10-20T05:14:29.565Z,34.10
2017-10-20T05:16:58.325Z,34.30
2017-10-20T05:19:26.332Z,34.60
2017-10-20T05:21:54.471Z,34.70
2017-10-20T05:24:22.983Z,35.10
2017-10-20T05:26:51.511Z,35.30
2017-10-20T05:29:23.011Z,35.40
2017-10-20T05:31:56.478Z,35.60
2017-10-20T05:34:24.549Z,35.80
2017-10-20T05:36:52.535Z,35.60
2017-10-20T05:39:25.730Z,35.30
2017-10-20T05:41:54.515Z,35.90
2017-10-20T05:44:22.962Z,36.90
2017-10-20T05:47:05.648Z,39.60
2017-10-20T05:49:34.990Z,40.20
2017-10-20T05:52:03.079Z,40.10
2017-10-20T05:54:31.204Z,40.50
2017-10-20T05:57:00.427Z,40.00
2017-10-20T05:59:29.691Z,39.80
2017-10-20T06:01:58.403Z,39.80
2017-10-20T06:04:27.159Z,38.60
2017-10-20T06:06:55.164Z,38.50
2017-10-20T06:09:24.111Z,38.20
2017-10-20T06:11:52.114Z,38.20
2017-10-20T06:14:20.594Z,38.30
2017-10-20T06:16:49.927Z,37.40
2017-10-20T06:19:17.956Z,37.40
2017-10-20T06:21:45.970Z,37.30
2017-10-20T06:24:18.774Z,37.30
2017-10-20T06:26:46.939Z,37.30
2017-10-20T06:29:15.026Z,37.40
2017-10-20T06:31:43.158Z,37.30
2017-10-20T06:34:11.960Z,37.40
2017-10-20T06:36:40.756Z,37.40
2017-10-20T06:39:09.658Z,37.30
2017-10-20T06:41:37.808Z,37.20
2017-10-20T06:44:06.551Z,37.10
2017-10-20T06:46:35.059Z,37.10
2017-10-20T06:49:03.675Z,37.20
2017-10-20T06:51:32.815Z,38.10
2017-10-20T06:54:00.987Z,38.10
2017-10-20T06:56:29.087Z,38.80
2017-10-20T06:58:57.763Z,39.50
2017-10-20T07:01:26.311Z,40.90
2017-10-20T07:03:55.082Z,41.40
2017-10-20T07:06:23.870Z,41.60
2017-10-20T07:08:52.752Z,40.70
2017-10-20T07:11:22.006Z,40.00
2017-10-20T07:13:50.043Z,40.00
2017-10-20T07:16:18.687Z,39.80
2017-10-20T07:18:48.759Z,39.40
2017-10-20T07:21:16.928Z,39.20
2017-10-20T07:23:45.079Z,38.90
2017-10-20T07:26:13.979Z,38.50
2017-10-20T07:28:43.364Z,38.60
2017-10-20T07:31:11.747Z,38.50
2017-10-20T07:33:40.502Z,38.50
2017-10-20T07:36:09.180Z,38.40
2017-10-20T07:38:38.239Z,38.40
2017-10-20T07:41:07.027Z,38.40
2017-10-20T07:43:36.438Z,38.50
2017-10-20T07:46:05.435Z,38.40
2017-10-20T07:48:33.483Z,38.40
2017-10-20T07:51:03.573Z,38.40
2017-10-20T07:53:31.708Z,38.40
2017-10-20T07:55:59.735Z,38.20
2017-10-20T07:58:28.250Z,38.20
2017-10-20T08:00:57.174Z,38.30
2017-10-20T08:03:25.800Z,38.30
2017-10-20T08:05:53.842Z,38.10
2017-10-20T08:08:22.563Z,38.10
2017-10-20T08:10:50.552Z,38.40
2017-10-20T08:13:19.328Z,38.80
2017-10-20T08:15:48.266Z,39.60
2017-10-20T08:18:16.644Z,39.60
2017-10-20T08:20:44.667Z,40.10
2017-10-20T08:23:12.784Z,39.90
2017-10-20T08:25:40.811Z,39.20
2017-10-20T08:28:08.976Z,39.10
2017-10-20T08:30:37.240Z,38.90
2017-10-20T08:33:05.287Z,38.50
2017-10-20T08:35:34.054Z,38.40
2017-10-20T08:38:02.942Z,38.30
2017-10-20T08:40:31.641Z,38.20
2017-10-20T08:42:59.738Z,38.20
2017-10-20T08:45:28.712Z,38.20
2017-10-20T08:47:57.564Z,37.90
2017-10-20T08:50:27.668Z,38.00
2017-10-20T08:52:55.878Z,38.00
2017-10-20T08:55:24.647Z,38.00
2017-10-20T08:57:52.703Z,38.00
2017-10-20T09:00:21.444Z,38.00
2017-10-20T09:02:50.753Z,37.90
2017-10-20T09:05:19.876Z,37.90
2017-10-20T09:07:49.562Z,37.90
2017-10-20T09:10:17.743Z,37.90
2017-10-20T09:12:45.791Z,37.90
2017-10-20T09:15:14.643Z,37.90
2017-10-20T09:17:43.100Z,37.90
2017-10-20T09:20:11.214Z,37.80
2017-10-20T09:22:40.281Z,37.80
2017-10-20T09:25:08.385Z,37.80
2017-10-20T09:27:36.559Z,37.90
2017-10-20T09:30:04.811Z,37.80
2017-10-20T09:32:33.439Z,37.70
2017-10-20T09:35:02.858Z,37.60
2017-10-20T09:37:32.243Z,37.60
2017-10-20T09:40:01.620Z,37.80
2017-10-20T09:42:29.681Z,37.70
2017-10-20T09:44:57.769Z,37.60
2017-10-20T09:47:26.384Z,37.70
2017-10-20T09:49:55.596Z,37.50
2017-10-20T09:52:25.023Z,37.40
2017-10-20T09:54:53.065Z,37.40
2017-10-20T09:57:21.862Z,37.30
2017-10-20T09:59:50.735Z,37.10
2017-10-20T10:02:20.071Z,37.10
2017-10-20T10:04:48.871Z,37.10
2017-10-20T10:07:17.018Z,37.10
2017-10-20T10:09:46.275Z,37.00
2017-10-20T10:12:14.284Z,37.00
2017-10-20T10:14:43.142Z,36.90
2017-10-20T10:17:11.716Z,36.90
2017-10-20T10:19:39.770Z,36.90
2017-10-20T10:22:07.907Z,36.90
2017-10-20T10:24:37.184Z,36.90
2017-10-20T10:27:05.224Z,36.90
2017-10-20T10:42:24.759Z,36.90
2017-10-20T10:44:53.496Z,36.50
2017-10-20T10:47:21.524Z,36.50
2017-10-20T10:49:50.100Z,36.40
2017-10-20T10:52:19.443Z,36.50
2017-10-20T10:54:48.091Z,36.40
2017-10-20T10:57:16.895Z,36.40
2017-10-20T10:59:44.913Z,36.40
2017-10-20T11:02:12.904Z,36.30
2017-10-20T11:04:41.650Z,36.20
2017-10-20T11:07:21.899Z,36.10
2017-10-20T11:10:01.448Z,36.00
2017-10-20T11:12:45.596Z,36.10
2017-10-20T11:15:14.574Z,35.90
2017-10-20T11:17:42.600Z,35.90
2017-10-20T11:20:11.111Z,35.90
2017-10-20T11:22:39.999Z,35.80
2017-10-20T11:25:09.441Z,35.80
2017-10-20T11:27:37.994Z,35.70
2017-10-20T11:30:06.981Z,35.60
2017-10-20T11:32:35.759Z,35.60
2017-10-20T11:35:05.076Z,35.60
2017-10-20T11:37:34.663Z,35.50
2017-10-20T11:40:03.170Z,35.50
2017-10-20T11:42:32.108Z,35.40
2017-10-20T11:45:00.286Z,35.40
2017-10-20T11:47:28.288Z,35.40
2017-10-20T11:49:56.308Z,35.30
2017-10-20T11:52:25.010Z,35.30
2017-10-20T11:54:53.063Z,35.30
2017-10-20T11:57:21.095Z,35.30
2017-10-20T11:59:50.020Z,35.10
2017-10-20T12:02:17.992Z,35.10
2017-10-20T12:04:46.054Z,35.00
2017-10-20T12:07:14.208Z,35.00
2017-10-20T12:09:43.567Z,34.80
2017-10-20T12:12:11.588Z,34.80
2017-10-20T12:14:40.475Z,34.70
2017-10-20T12:17:09.235Z,34.60
2017-10-20T12:19:37.807Z,34.60
2017-10-20T12:22:05.904Z,34.50
2017-10-20T12:24:34.502Z,34.60
2017-10-20T12:27:03.944Z,34.50
2017-10-20T12:29:33.524Z,34.40
2017-10-20T12:32:02.295Z,34.40
2017-10-20T12:34:30.272Z,34.40
2017-10-20T12:36:58.348Z,34.40
2017-10-20T12:39:26.916Z,34.40
2017-10-20T12:41:55.458Z,34.20
2017-10-20T12:44:24.149Z,34.20
2017-10-20T12:46:52.260Z,34.20
2017-10-20T12:49:20.224Z,34.20
2017-10-20T12:51:48.913Z,34.10
2017-10-20T12:54:16.911Z,34.10
2017-10-20T12:56:47.274Z,34.00
2017-10-20T12:59:15.451Z,34.00
2017-10-20T13:01:43.977Z,33.90
2017-10-20T13:04:11.986Z,33.90
2017-10-20T13:06:40.652Z,33.80
2017-10-20T13:09:09.391Z,33.70
2017-10-20T13:11:37.927Z,33.80
2017-10-20T13:14:07.307Z,33.60
2017-10-20T13:16:35.915Z,33.60
2017-10-20T13:19:04.734Z,33.50
2017-10-20T13:21:32.848Z,33.50
2017-10-20T13:24:00.847Z,33.50
2017-10-20T13:26:30.399Z,33.30
2017-10-20T13:28:58.579Z,33.30
2017-10-20T13:31:26.607Z,33.30
2017-10-20T13:33:55.387Z,33.20
2017-10-20T13:36:23.471Z,33.20
2017-10-20T13:38:52.786Z,33.00
2017-10-20T13:41:21.574Z,33.00
2017-10-20T13:43:50.436Z,33.00
2017-10-20T13:46:18.638Z,33.00
2017-10-20T13:48:47.461Z,32.90
2017-10-20T13:51:15.610Z,32.80
2017-10-20T13:53:45.127Z,32.70
2017-10-20T13:56:13.185Z,32.70
2017-10-20T13:58:42.679Z,32.70
2017-10-20T14:01:11.428Z,32.70
2017-10-20T14:03:39.618Z,32.70
2017-10-20T14:06:07.843Z,32.70
2017-10-20T14:08:36.412Z,32.60
2017-10-20T14:11:05.108Z,32.60
2017-10-20T14:13:34.628Z,32.50
2017-10-20T14:16:02.643Z,32.50
2017-10-20T14:18:30.658Z,32.50
2017-10-20T14:20:59.546Z,32.40
2017-10-20T14:23:28.350Z,32.40
2017-10-20T14:25:56.376Z,32.30
2017-10-20T14:28:24.960Z,32.40
2017-10-20T14:30:53.518Z,32.30
2017-10-20T14:33:21.627Z,32.30
2017-10-20T14:35:49.814Z,32.30
2017-10-20T14:38:18.547Z,32.30
2017-10-20T14:40:47.287Z,32.30
2017-10-20T14:43:16.218Z,32.30
2017-10-20T14:45:44.786Z,32.30
2017-10-20T14:48:12.954Z,32.20
2017-10-20T14:50:41.840Z,32.10
2017-10-20T14:53:10.672Z,32.10
2017-10-20T14:55:38.648Z,32.10
2017-10-20T14:58:07.331Z,32.00
2017-10-20T15:00:35.391Z,32.00
2017-10-20T15:03:03.402Z,32.00
2017-10-20T15:05:31.628Z,32.00
2017-10-20T15:07:59.706Z,32.00
2017-10-20T15:10:27.720Z,32.00
2017-10-20T15:12:56.411Z,32.00
2017-10-20T15:15:24.916Z,32.00
2017-10-20T15:17:54.235Z,32.00
2017-10-20T15:20:23.583Z,31.90
2017-10-20T15:22:51.602Z,31.90
2017-10-20T15:25:20.355Z,31.90
2017-10-20T15:27:48.510Z,31.90
2017-10-20T15:30:17.286Z,31.90
2017-10-20T15:32:45.846Z,31.90
2017-10-20T15:35:14.712Z,31.90
2017-10-20T15:37:42.775Z,31.90
2017-10-20T15:40:11.332Z,31.90
2017-10-20T15:42:40.079Z,31.90
2017-10-20T15:45:09.382Z,31.90
2017-10-20T15:47:38.822Z,31.80
2017-10-20T15:50:07.154Z,31.80
2017-10-20T15:52:35.891Z,31.80
2017-10-20T15:55:03.891Z,31.80
2017-10-20T15:57:32.614Z,31.80
2017-10-20T16:00:01.955Z,31.80
2017-10-20T16:02:31.354Z,31.80
2017-10-20T16:04:59.427Z,31.80
2017-10-20T16:07:27.436Z,31.80
2017-10-20T16:09:55.472Z,31.80
2017-10-20T16:12:24.139Z,31.80
2017-10-20T16:14:52.776Z,31.80
2017-10-20T16:17:21.518Z,31.80
2017-10-20T16:19:50.239Z,31.80
2017-10-20T16:22:18.267Z,31.80
2017-10-20T16:24:46.286Z,31.70
2017-10-20T16:27:14.955Z,31.70
2017-10-20T16:29:43.492Z,31.60
2017-10-20T16:32:12.334Z,31.60
2017-10-20T16:34:41.217Z,31.60
2017-10-20T16:37:09.219Z,31.70
2017-10-20T16:39:37.180Z,31.70
2017-10-20T16:42:05.955Z,31.70
2017-10-20T16:44:34.551Z,31.60
2017-10-20T16:47:03.322Z,31.60
2017-10-20T16:49:31.990Z,31.60
2017-10-20T16:52:00.189Z,31.60
2017-10-20T16:54:28.185Z,31.60
2017-10-20T16:56:56.291Z,31.60
2017-10-20T16:59:25.551Z,31.60
2017-10-20T17:01:54.319Z,31.60
2017-10-20T17:04:22.939Z,31.50
2017-10-20T17:06:51.000Z,31.50
2017-10-20T17:09:18.992Z,31.50
2017-10-20T17:11:47.194Z,31.50
2017-10-20T17:14:16.018Z,31.50
2017-10-20T17:16:44.103Z,31.40
2017-10-20T17:19:12.300Z,31.50
2017-10-20T17:21:40.742Z,31.50
2017-10-20T17:24:08.852Z,31.50
2017-10-20T17:26:37.063Z,31.50
2017-10-20T17:29:06.378Z,31.50
2017-10-20T17:31:35.088Z,31.50
2017-10-20T17:34:03.219Z,31.50
2017-10-20T17:36:32.495Z,31.50
2017-10-20T17:39:00.550Z,31.50
2017-10-20T17:41:28.656Z,31.50
2017-10-20T17:43:57.352Z,31.50
2017-10-20T17:46:26.552Z,31.50
2017-10-20T17:48:56.068Z,31.40
2017-10-20T17:51:25.256Z,31.40
2017-10-20T17:53:54.172Z,31.40
2017-10-20T17:56:22.291Z,31.40
2017-10-20T17:58:50.288Z,31.30
2017-10-20T18:01:19.499Z,31.20
2017-10-20T18:03:48.823Z,31.20
2017-10-20T18:06:17.282Z,31.20
2017-10-20T18:08:46.079Z,31.10
2017-10-20T18:11:15.022Z,31.10
2017-10-20T18:13:43.487Z,31.10
2017-10-20T18:16:11.904Z,31.00
2017-10-20T18:18:40.738Z,30.90
2017-10-20T18:21:09.350Z,30.80
2017-10-20T18:23:37.390Z,30.80
2017-10-20T18:26:05.525Z,30.80
2017-10-20T18:28:33.979Z,30.80
2017-10-20T18:31:02.675Z,30.80
2017-10-20T18:33:31.539Z,30.80
2017-10-20T18:36:00.244Z,30.70
2017-10-20T18:38:29.667Z,30.60
2017-10-20T18:40:57.838Z,30.60
2017-10-20T18:43:25.899Z,30.50
2017-10-20T18:45:54.482Z,30.60
2017-10-20T18:48:22.586Z,30.60
2017-10-20T18:50:51.211Z,30.60
2017-10-20T18:53:19.656Z,30.60
2017-10-20T18:55:47.928Z,30.60
2017-10-20T18:58:15.896Z,30.50
2017-10-20T19:00:44.661Z,30.50
2017-10-20T19:03:13.104Z,30.50
2017-10-20T19:05:42.648Z,30.30
2017-10-20T19:08:10.959Z,30.30
2017-10-20T19:10:39.107Z,30.30
2017-10-20T19:13:07.287Z,30.30
2017-10-20T19:15:35.947Z,30.20
2017-10-20T19:18:04.064Z,30.20
2017-10-20T19:20:32.659Z,30.30
2017-10-20T19:23:01.052Z,30.20
2017-10-20T19:25:29.950Z,30.20
2017-10-20T19:27:58.785Z,30.10
2017-10-20T19:30:27.346Z,30.10
2017-10-20T19:32:56.276Z,30.10
2017-10-20T19:35:25.053Z,30.00
2017-10-20T19:37:53.596Z,30.00
2017-10-20T19:40:22.443Z,30.00
2017-10-20T19:42:50.459Z,30.00
2017-10-20T19:45:19.195Z,29.90
2017-10-20T19:47:47.879Z,29.80
2017-10-20T19:50:17.551Z,29.90
2017-10-20T19:52:47.551Z,29.90
2017-10-20T19:55:16.411Z,29.90
2017-10-20T19:57:45.092Z,29.80
2017-10-20T20:00:13.272Z,29.80
2017-10-20T20:02:43.302Z,29.70
2017-10-20T20:05:12.936Z,29.80
2017-10-20T20:07:42.852Z,29.80
2017-10-20T20:10:11.631Z,29.80
2017-10-20T20:12:39.848Z,29.80
2017-10-20T20:15:07.959Z,29.80
2017-10-20T20:17:38.248Z,29.80
2017-10-20T20:20:07.160Z,29.80
2017-10-20T20:22:36.556Z,29.70
2017-10-20T20:25:06.060Z,29.70
2017-10-20T20:27:35.019Z,29.70
2017-10-20T20:30:03.940Z,29.70
2017-10-20T20:32:34.263Z,29.70
2017-10-20T20:35:03.392Z,29.70
2017-10-20T20:37:32.755Z,29.70
2017-10-20T20:40:02.084Z,29.70
2017-10-20T20:42:30.722Z,29.70
2017-10-20T20:44:59.898Z,29.70
2017-10-20T20:47:28.744Z,29.70
2017-10-20T20:49:57.507Z,29.70
2017-10-20T20:52:26.640Z,29.70
2017-10-20T20:54:56.750Z,29.60
2017-10-20T20:57:26.099Z,29.60
2017-10-20T20:59:55.599Z,29.50
2017-10-20T21:02:24.103Z,29.50
2017-10-20T21:04:54.279Z,29.40
2017-10-20T21:07:23.813Z,29.40
2017-10-20T21:09:51.971Z,29.40
2017-10-20T21:12:21.108Z,29.40
2017-10-20T21:14:50.260Z,29.40
2017-10-20T21:17:19.142Z,29.40
2017-10-20T21:19:50.195Z,29.50
2017-10-20T21:22:18.958Z,29.40
2017-10-20T21:24:49.238Z,29.40
2017-10-20T21:27:17.810Z,29.30
2017-10-20T21:29:46.096Z,29.30
2017-10-20T21:32:14.344Z,29.30
2017-10-20T21:34:43.882Z,29.30
2017-10-20T21:37:12.411Z,29.30
2017-10-20T21:39:41.949Z,29.20
2017-10-20T21:42:10.147Z,29.20
2017-10-20T21:44:39.194Z,29.20
2017-10-20T21:47:08.751Z,29.20
2017-10-20T21:49:39.435Z,29.10
2017-10-20T21:52:09.264Z,29.10
2017-10-20T21:54:38.426Z,29.10
2017-10-20T21:57:09.323Z,29.10
2017-10-20T21:59:39.698Z,29.10
2017-10-20T22:02:08.983Z,29.20
2017-10-20T22:04:39.318Z,29.10
2017-10-20T22:07:09.380Z,29.00
2017-10-20T22:09:38.160Z,29.00
2017-10-20T22:12:06.659Z,29.00
2017-10-20T22:14:34.627Z,29.00
2017-10-20T22:17:03.140Z,29.10
2017-10-20T22:19:32.649Z,29.00
2017-10-20T22:22:03.011Z,29.00
2017-10-20T22:24:33.912Z,28.90
2017-10-20T22:27:02.892Z,28.90
2017-10-20T22:29:32.468Z,28.90
2017-10-20T22:32:01.198Z,28.90
2017-10-20T22:34:29.711Z,28.90
2017-10-20T22:37:00.059Z,28.90
2017-10-20T22:39:29.000Z,28.80
2017-10-20T22:41:59.479Z,28.90
2017-10-20T22:44:28.558Z,28.80
2017-10-20T22:46:57.214Z,28.80
2017-10-20T22:49:25.612Z,28.80
2017-10-20T22:51:57.016Z,28.80
2017-10-20T22:54:26.483Z,28.80
2017-10-20T22:56:54.705Z,28.80
2017-10-20T22:59:25.675Z,28.70
2017-10-20T23:01:53.708Z,28.70
2017-10-20T23:04:23.742Z,28.60
2017-10-20T23:06:52.328Z,28.70
2017-10-20T23:09:22.170Z,28.50
2017-10-20T23:11:50.958Z,28.50
2017-10-20T23:14:21.102Z,28.50
2017-10-20T23:16:50.130Z,28.50
2017-10-20T23:19:18.140Z,28.50
2017-10-20T23:21:47.304Z,28.50
2017-10-20T23:24:15.491Z,28.50
2017-10-20T23:26:44.424Z,28.50
2017-10-20T23:29:13.179Z,28.30
2017-10-20T23:31:41.326Z,28.30
2017-10-20T23:34:09.919Z,28.30
2017-10-20T23:36:40.878Z,28.40
2017-10-20T23:39:11.536Z,28.40
2017-10-20T23:41:40.144Z,28.40
2017-10-20T23:44:09.118Z,28.30
2017-10-20T23:46:38.414Z,28.30
2017-10-20T23:49:06.560Z,28.30
2017-10-20T23:51:36.098Z,28.30
2017-10-20T23:54:06.242Z,28.40
2017-10-20T23:56:35.495Z,28.30
2017-10-20T23:59:05.756Z,28.30
